Weather observations for the past three days for
Madison Municipal Airport
Metric (Imperial)
Date Time (cdt) Wind (kph) Vis. (km) Weather Sky Cond. Temperature (ºC) Relative Humidity Wind Chill (°C) Heat Index (°C) Pressure Precipitation (cm)
Air Dwpt 6 hour altimeter (cm) sea level (mb) 1 hr 3 hr 6 hr
Max. Min.
07 00:15 NE 13 16.09 Overcast OVC075 4 -5 52% 1 76.02 0.0
06 23:55 E 9 16.09 Overcast OVC075 4 -5 52% 2 76.02 0.0
06 23:35 E 9 16.09 Overcast BKN075 OVC090 3 -5 56% 1 76.02 0.0
06 23:15 E 9 16.09 Overcast FEW080 OVC090 3 -6 52% 1 76.02 0.0
06 22:55 NE 7 16.09 Mostly Cloudy FEW080 BKN090 4 -6 48% 2 76.02 0.0
06 22:35 NE 9 16.09 Mostly Cloudy BKN075 BKN090 4 -6 48% 2 76.05 0.0
06 22:15 NE 9 16.09 Mostly Cloudy SCT080 BKN090 5 -6 45% 3 76.05 0.0
06 21:55 NE 7 16.09 Partly Cloudy FEW060 FEW075 SCT090 5 -6 45% 4 76.05 0.0
06 21:35 NE 7 16.09 Overcast SCT065 BKN075 OVC095 6 -6 42% 5 76.02 0.0
06 21:15 NE 9 16.09 Overcast FEW065 BKN080 OVC095 6 -6 42% 4 76.02 0.0
06 20:55 N 9 16.09 Overcast OVC075 6 -5 46% 4 76.02 0.0
06 20:35 N 13 16.09 Overcast BKN075 OVC085 7 -5 43% 5 76.02 0.0
06 20:15 NW 11 16.09 Overcast FEW070 OVC080 9 -4 40% 8 76.02 0.0
06 19:55 NW 17 16.09 Overcast FEW065 OVC080 10 -6 32% 8 76.02 0.0
06 19:35 W 17 16.09 Overcast OVC080 10 -7 30% 8 76.02 0.0
06 19:15 W 20 16.09 Mostly Cloudy BKN080 BKN090 10 -7 30% 8 76.02 0.0
06 18:55 W 19 G 28 16.09 Mostly Cloudy BKN080 BKN090 11 -6 30% 76.05 0.0
06 18:35 NW 24 16.09 Overcast OVC080 11 -6 30% 76.05 0.0
06 18:15 NW 26 16.09 Mostly Cloudy BKN075 12 -6 28% 76.05 0.0
06 17:55 NW 20 G 31 16.09 Mostly Cloudy BKN075 11 -5 32% 76.07 0.0
06 17:35 W 22 16.09 Overcast OVC075 11 -6 30% 76.07 0.0
06 17:15 NW 24 G 35 16.09 Overcast BKN075 OVC085 11 -5 32% 76.1 0.0
06 16:55 W 22 16.09 Mostly Cloudy BKN075 BKN085 10 -5 35% 7 76.1 0.0
06 16:35 W 26 G 37 16.09 Mostly Cloudy BKN070 BKN080 11 -5 32% 76.12 0.0
06 16:15 W 26 16.09 Mostly Cloudy BKN070 11 -5 32% 76.12 0.0
06 15:55 NW 20 G 37 16.09 Mostly Cloudy BKN070 11 -5 32% 76.15 0.0
06 15:35 W 31 G 43 16.09 Mostly Cloudy BKN070 12 -5 30% 76.17 0.0
06 15:15 W 28 G 39 16.09 Mostly Cloudy BKN070 BKN080 11 -5 32% 76.17 0.0
06 14:55 W 24 G 41 16.09 Partly Cloudy SCT070 SCT075 11 -5 32% 76.2 0.0
06 14:35 W 15 G 35 16.09 Mostly Cloudy BKN070 10 -4 37% 8 76.2 0.0
06 14:15 NW 28 G 37 16.09 Overcast OVC070 10 -5 35% 7 76.23 0.0
06 13:55 NW 19 G 37 16.09 Mostly Cloudy BKN060 BKN075 9 -4 40% 7 76.23 0.0
06 13:35 NW 17 G 35 16.09 A Few Clouds FEW060 9 -5 37% 7 76.25 0.0
06 13:15 NW 24 G 39 16.09 Partly Cloudy SCT055 9 -4 40% 6 76.25 0.0
06 12:55 NW 26 G 37 16.09 Partly Cloudy SCT060 9 -5 37% 6 76.28 0.0
06 12:35 NW 30 G 46 16.09 Mostly Cloudy BKN055 9 -5 37% 6 76.28 0.0
06 12:15 W 31 G 46 16.09 Mostly Cloudy BKN055 9 -4 40% 5 76.3 0.0
06 11:55 NW 22 G 41 16.09 Mostly Cloudy SCT050 BKN065 8 -4 43% 5 76.3 0.0
06 11:35 W 24 G 35 16.09 Partly Cloudy SCT050 SCT055 8 -5 40% 5 76.33 0.0
06 11:15 W 28 16.09 Partly Cloudy SCT050 7 -5 43% 3 76.33 0.0
06 10:55 W 24 G 35 16.09 Partly Cloudy SCT048 7 -4 46% 4 76.33 0.0
06 10:35 W 17 G 31 16.09 Fair CLR 7 -4 46% 4 76.35 0.0
06 10:15 NW 22 16.09 Fair CLR 6 -4 49% 2 76.35 0.0
06 09:55 NW 22 16.09 A Few Clouds FEW060 6 -4 49% 2 76.35 0.0
06 09:35 NW 17 16.09 Mostly Cloudy BKN060 5 -4 53% 2 76.35 0.0
06 09:15 NW 19 16.09 Overcast OVC065 4 -4 56% 0 76.35 0.0
06 08:55 NW 17 16.09 Overcast OVC065 4 -4 56% 1 76.35 0.0
06 08:35 NW 17 16.09 Overcast OVC065 3 -3 65% -1 76.35 0.0
06 08:15 NW 13 16.09 Overcast OVC065 3 -1 75% 0 76.33 0.0
06 07:55 NW 9 16.09 Overcast OVC065 1 -1 87% -2 76.33 0.0
06 07:35 NW 9 16.09 Overcast OVC065 1 -1 87% -2 76.3 0.0
06 07:15 NW 9 16.09 Overcast OVC065 0 -2 87% -3 76.3 0.0
06 06:55 NW 9 16.09 Overcast OVC065 -1 -3 86% -4 76.28 0.0
06 06:35 W 6 16.09 Overcast OVC065 -1 -2 93% 76.25 0.0
06 06:15 W 7 16.09 Overcast OVC070 -1 -3 86% -3 76.25 0.0
06 05:55 W 9 16.09 Overcast OVC070 -1 -3 86% -4 76.23 0.0
06 05:35 NW 9 16.09 Overcast FEW060 OVC075 -2 -4 86% -5 76.23 0.0
06 05:15 NW 9 16.09 Mostly Cloudy SCT060 BKN070 -2 -3 93% -5 76.23 0.0
06 04:55 NW 11 16.09 Fair CLR -3 -5 86% -7 76.23 0.0
06 04:35 NW 11 16.09 Fair CLR -3 -4 93% -7 76.2 0.0
06 04:15 NW 13 16.09 A Few Clouds FEW065 FEW075 -4 -5 93% -8 76.17 0.0
06 03:55 NW 13 16.09 Mostly Cloudy FEW055 BKN070 -3 -5 86% -7 76.2 0.0
06 03:35 W 7 16.09 Partly Cloudy FEW055 SCT065 -1 -3 86% -3 76.2 0.0
06 03:15 NW 11 16.09 A Few Clouds FEW055 FEW065 -3 -5 86% -7 76.17 0.0
06 02:55 N 13 16.09 A Few Clouds FEW055 FEW065 -2 -4 86% -6 76.15 0.0
06 02:35 N 13 16.09 Mostly Cloudy SCT060 BKN075 -3 -4 93% -7 76.15 0.0
06 02:15 NW 13 16.09 Overcast SCT065 OVC075 -2 -5 80% -6 76.17 0.0
06 01:55 NW 11 16.09 Partly Cloudy FEW070 SCT075 -1 -5 75% -4 76.17 0.0
06 01:35 W 9 16.09 Mostly Cloudy BKN065 BKN080 -1 -5 75% -4 76.17 0.0
06 01:15 NW 11 16.09 Partly Cloudy SCT065 -2 -5 80% -6 76.17 0.0
06 00:55 NW 11 16.09 Fair CLR -1 -5 75% -4 76.15 0.0
06 00:35 NW 9 16.09 A Few Clouds FEW060 -1 -5 75% -4 76.12 0.0
06 00:15 NW 9 16.09 Mostly Cloudy SCT060 BKN070 0 -5 69% -3 76.12 0.0
05 23:55 NW 9 16.09 Overcast SCT065 OVC075 0 -6 64% -3 76.12 0.0
05 23:35 NW 9 16.09 Mostly Cloudy SCT065 BKN075 0 -6 64% -3 76.15 0.0
05 23:15 NW 11 16.09 A Few Clouds FEW060 FEW075 1 -5 65% -2 76.15 0.0
05 22:55 NW 13 16.09 Mostly Cloudy SCT065 BKN075 2 -5 60% -1 76.15 0.0
05 22:35 NW 11 16.09 Overcast FEW065 OVC080 2 -5 60% -1 76.15 0.0
05 22:15 NW 11 16.09 Overcast OVC080 2 -6 56% -1 76.12 0.0
05 21:55 NW 11 16.09 Overcast OVC075 1 -6 60% -2 76.1 0.0
05 21:35 NW 11 16.09 Partly Cloudy SCT070 SCT080 2 -6 56% -1 76.1 0.0
05 21:15 NW 9 16.09 Fair CLR 3 -6 52% 1 76.05 0.0
05 20:55 NW 11 16.09 Fair CLR 3 -5 56% 0 76.05 0.0
05 20:35 NW 17 16.09 A Few Clouds FEW060 FEW070 4 -5 52% 1 76.02 0.0
05 20:15 NW 20 G 30 16.09 Fair CLR 5 -6 45% 1 76.02 0.0
05 19:55 NW 28 16.09 Fair CLR 6 -6 42% 2 76 0.0
05 19:35 NW 24 16.09 A Few Clouds FEW060 7 -6 39% 4 76 0.0
05 19:15 NW 24 G 37 16.09 Partly Cloudy SCT065 7 -5 43% 4 75.97 0.0
05 18:55 NW 26 G 37 16.09 Mostly Cloudy BKN070 7 -5 43% 3 75.97 0.0
05 18:35 NW 30 G 39 16.09 Mostly Cloudy FEW060 BKN070 8 -6 37% 4 75.97 0.0
05 18:15 NW 31 G 44 16.09 Overcast SCT060 OVC075 7 -5 43% 3 75.97 0.0
05 17:55 NW 30 16.09 Overcast SCT060 OVC075 8 -5 40% 4 75.97 0.0
05 17:35 NW 33 G 43 16.09 Overcast and Breezy FEW060 OVC070 8 -5 40% 4 75.97 0.0
05 17:15 NW 30 G 41 16.09 Overcast SCT060 OVC070 8 -5 40% 4 75.97 0.0
05 16:55 NW 30 G 41 16.09 Overcast SCT060 OVC075 9 -5 37% 6 75.97 0.0
05 16:35 NW 26 G 37 16.09 Overcast BKN070 OVC075 8 -5 40% 5 75.97 0.0
05 16:15 NW 28 16.09 Overcast BKN070 OVC075 8 -6 37% 4 75.97 0.0
05 15:55 NW 28 16.09 Overcast BKN070 OVC075 8 -6 37% 4 75.97 0.0
05 15:35 NW 26 G 37 16.09 Overcast OVC070 8 -6 37% 5 76 0.0
05 15:15 NW 30 G 41 16.09 Overcast OVC070 8 -6 37% 4 76 0.0
05 14:55 NW 28 G 41 16.09 Overcast OVC070 8 -6 37% 4 76 0.0
05 14:35 NW 26 G 41 16.09 Overcast OVC070 8 -7 34% 5 76 0.0
05 14:15 NW 30 16.09 Overcast BKN065 OVC075 8 -6 37% 4 76 0.0
05 13:55 NW 26 G 43 16.09 Overcast OVC070 8 -6 37% 5 76 0.0
05 13:35 N 19 G 39 16.09 Overcast BKN060 OVC070 8 -5 40% 5 76 0.0
05 13:15 NW 30 G 43 16.09 Overcast OVC060 7 -6 39% 3 76 0.0
05 12:55 NW 24 G 39 16.09 Overcast OVC065 7 -6 39% 4 76.02 0.0
05 12:35 W 24 G 37 16.09 Overcast OVC060 7 -5 43% 4 76 0.0
05 12:15 NW 26 G 41 16.09 Overcast OVC060 7 -5 43% 3 76.02 0.0
05 11:55 NW 30 G 43 16.09 Overcast BKN055 OVC065 6 -4 49% 2 76 0.0
05 11:35 NW 28 G 39 16.09 Overcast FEW048 OVC060 6 -4 49% 2 76 0.0
05 11:15 NW 28 G 41 16.09 Overcast OVC055 6 -3 53% 2 75.97 0.0
05 10:55 NW 31 16.09 Overcast FEW045 OVC055 6 -4 49% 2 75.97 0.0
05 10:35 NW 33 16.09 Overcast and Breezy FEW042 OVC055 6 -4 49% 1 75.95 0.0
05 10:15 NW 22 G 41 16.09 Mostly Cloudy SCT044 BKN060 7 -3 49% 4 75.95 0.0
05 09:55 NW 28 G 39 16.09 Partly Cloudy FEW040 FEW046 SCT060 6 -3 53% 2 75.95 0.0
05 09:35 NW 24 16.09 A Few Clouds FEW040 FEW046 6 -3 53% 2 75.95 0.0
05 09:15 NW 24 16.09 Fair CLR 6 -3 53% 2 75.95 0.0
05 08:55 NW 20 16.09 A Few Clouds FEW049 5 -2 61% 1 75.95 0.0
05 08:15 NW 19 16.09 Fair CLR 3 -1 75% -1 75.9 0.0
05 07:55 NW 17 16.09 Fair CLR 2 -1 81% -2 75.87 0.0
05 07:35 NW 17 16.09 Fair CLR 1 -1 87% -3 75.84 0.0
05 07:15 W 13 16.09 Fair CLR 0 -2 87% -4 75.82 0.0
05 06:55 W 15 16.09 Fair CLR 0 -2 87% -4 75.82 0.0
05 06:35 W 13 16.09 Fair CLR 0 -2 87% -4 75.79 0.0
05 06:15 W 13 16.09 Fair CLR 0 -2 87% -4 75.77 0.0
05 05:55 W 11 16.09 Fair CLR 0 -3 80% -3 75.77 0.0
05 05:35 NW 13 16.09 Fair CLR 0 -3 80% -4 75.77 0.0
05 05:15 NW 11 16.09 Fair CLR -1 -3 86% -4 75.74 0.0
05 04:35 NW 19 16.09 Fair CLR -1 -3 86% -6 75.74 0.0
05 03:55 NW 17 16.09 A Few Clouds FEW055 0 -3 80% -4 75.74 0.0
05 01:55 NW 19 16.09 Fair CLR 0 -3 80% -5 75.72 0.0
05 01:15 NW 17 16.09 Fair CLR 0 -4 75% -4 75.72 0.0
05 00:55 NW 13 16.09 Fair CLR 2 -3 70% -1 75.69 0.0
05 00:35 W 13 16.09 Fair CLR 2 -3 70% -1 75.69 0.0
04 23:55 NW 9 16.09 Fair CLR 4 -3 61% 2 75.69 0.0
04 23:35 NW 9 16.09 Fair CLR 4 -4 56% 2 75.69 0.0
04 23:15 W 11 16.09 Fair CLR 4 -4 56% 2 75.69 0.0
04 22:55 NW 11 16.09 Fair CLR 4 -3 61% 2 75.69 0.0
04 22:35 NW 13 16.09 Fair CLR 4 -3 61% 1 75.69 0.0
04 22:15 NW 11 16.09 Fair CLR 4 -4 56% 2 75.67 0.0
04 21:55 NW 13 16.09 Fair CLR 5 -3 57% 2 75.67 0.0
04 21:35 NW 15 16.09 Fair CLR 5 -4 53% 2 75.64 0.0
04 21:15 NW 15 16.09 Fair CLR 6 -3 53% 3 75.62 0.0
04 20:55 NW 17 16.09 A Few Clouds FEW080 8 -3 46% 6 75.59 0.0
04 20:35 NW 22 16.09 Partly Cloudy FEW065 SCT080 9 -3 43% 6 75.59 0.0
04 20:15 NW 28 G 39 16.09 Mostly Cloudy BKN070 10 -4 37% 7 75.57 0.0
04 19:55 NW 20 G 33 16.09 Partly Cloudy SCT070 10 -3 40% 8 75.57 0.0
04 19:35 NW 24 G 35 16.09 Partly Cloudy FEW070 SCT080 10 -3 40% 7 75.54 0.0
04 19:15 NW 26 G 39 16.09 Mostly Cloudy BKN075 10 -3 40% 7 75.54 0.0
04 18:55 NW 39 16.09 A Few Clouds and Breezy FEW070 FEW080 11 -3 38% 75.57 0.0
04 18:35 NW 33 G 50 16.09 A Few Clouds and Breezy FEW070 11 -3 38% 75.54 0.0
04 18:15 NW 39 G 52 16.09 A Few Clouds and Breezy FEW070 11 -3 38% 75.54 0.0
04 17:55 NW 33 G 52 16.09 A Few Clouds and Breezy FEW065 11 -3 38% 75.54 0.0
04 17:35 NW 33 G 48 16.09 Partly Cloudy and Breezy SCT060 SCT070 11 -2 41% 75.51 0.0
04 17:15 NW 41 16.09 A Few Clouds and Breezy FEW060 11 -2 41% 75.54 0.0
04 16:55 NW 44 G 61 16.09 A Few Clouds and Windy FEW060 12 -1 41% 75.54 0.0
04 16:35 NW 39 G 57 16.09 A Few Clouds and Breezy FEW060 12 -1 41% 75.51 0.0
04 16:15 NW 44 G 59 16.09 Fair and Windy CLR 12 -2 38% 75.51 0.0
04 15:55 NW 50 G 61 16.09 A Few Clouds and Windy FEW060 13 -1 38% 75.51 0.0
04 15:35 NW 43 G 56 16.09 Fair and Windy CLR 12 0 44% 75.49 0.0
04 15:15 NW 48 G 59 16.09 Fair and Windy CLR 11 -1 44% 75.51 0.0
04 14:55 NW 43 16.09 Fair and Windy CLR 12 0 44% 75.49 0.0
04 14:35 NW 39 G 61 16.09 A Few Clouds and Breezy FEW100 12 0 44% 75.49 0.0
04 14:15 NW 43 G 61 16.09 A Few Clouds and Windy FEW100 11 -1 44% 75.49 0.0
04 13:55 NW 44 G 57 16.09 Fair and Windy CLR 13 0 41% 75.46 0.0
04 13:35 NW 48 G 63 16.09 Fair and Windy CLR 13 0 41% 75.44 0.0
04 13:15 NW 46 G 59 16.09 Fair and Windy CLR 14 0 39% 75.41 0.0
04 12:55 NW 48 G 63 16.09 Fair and Windy CLR 14 -1 36% 75.39 0.0
04 12:35 NW 37 G 59 16.09 Fair and Breezy CLR 14 0 39% 75.36 0.0
04 12:15 N 39 G 61 16.09 Fair and Breezy CLR 14 0 39% 75.36 0.0
04 11:55 NW 39 G 56 16.09 Fair and Breezy CLR 15 1 39% 75.36 0.0
04 11:35 NW 43 16.09 Fair and Windy CLR 14 1 41% 75.34 0.0
04 11:15 NW 44 16.09 Fair and Windy CLR 14 1 41% 75.31 0.0
04 10:55 NW 39 G 54 16.09 Fair and Breezy CLR 14 1 41% 75.29 0.0
04 10:35 NW 39 16.09 Fair and Breezy CLR 14 2 44% 75.29 0.0
04 10:15 NW 37 16.09 Fair and Breezy CLR 13 2 47% 75.26 0.0
04 09:55 N 33 G 48 16.09 Fair and Breezy CLR 13 2 47% 75.26 0.0
04 09:35 N 35 16.09 A Few Clouds and Breezy FEW120 13 3 51% 75.23 0.0
04 09:15 N 24 G 41 16.09 A Few Clouds FEW120 13 3 51% 75.23 0.0
04 08:55 N 24 G 37 16.09 A Few Clouds FEW110 12 3 54% 75.21 0.0
04 08:35 N 26 16.09 Mostly Cloudy BKN110 11 4 62% 75.18 0.0
04 08:15 N 15 16.09 Overcast OVC120 11 6 72% 75.18 0.0
04 07:55 N 15 16.09 Mostly Cloudy BKN120 10 6 76% 8 75.13 0.0
04 07:35 N 20 16.09 A Few Clouds FEW120 10 6 76% 8 75.13 0.0
04 07:15 NW 19 16.09 Fair CLR 10 6 76% 8 75.11 0.0
04 06:55 NW 20 16.09 Fair CLR 10 5 71% 8 75.11 0.0
04 06:35 W 15 16.09 Fair CLR 10 5 71% 8 75.06 0.0
04 06:15 W 15 16.09 Fair CLR 10 4 67% 8 75.03 0.0
04 05:55 SW 20 G 31 16.09 Fair CLR 11 3 58% 75.03 0.0
04 05:35 W 19 16.09 Fair CLR 11 3 58% 75.06 0.0
04 05:15 SW 30 16.09 Fair CLR 11 2 54% 74.98 0.0
04 04:55 SW 22 16.09 Fair CLR 11 2 54% 75.01 0.0
04 04:35 SW 22 16.09 Fair CLR 12 2 51% 75.01 0.0
04 04:15 SW 26 16.09 Fair CLR 12 2 51% 75.03 0.0
04 03:35 SW 24 G 35 16.09 Fair CLR 12 0 44% 75.06 0.0
04 03:15 SW 28 G 37 16.09 Fair CLR 12 0 44% 75.08 0.0
04 02:55 SW 26 16.09 Fair CLR 13 0 41% 75.11 0.0
04 02:35 SW 19 16.09 Fair CLR 13 -1 38% 75.11 0.0
04 02:15 SW 17 16.09 Fair CLR 12 0 44% 75.13 0.0
04 01:35 SW 20 16.09 Fair CLR 12 -1 41% 75.18 0.0
04 01:15 SW 19 16.09 Fair CLR 11 -1 44% 75.21 0.0
04 00:55 SW 17 16.09 Fair CLR 10 -1 47% 8 75.23 0.0
Date Time (cdt) Wind (kph) Vis. (km) Weather Sky Cond. Air Dwpt Max. Min. Relative Humidity Wind Chill (°C) Heat Index (°C) altimeter (cm) sea level (mb) 1 hr 3 hr 6 hr
6 hour
Temperature (ºC) Pressure Precipitation (cm)